Time;durP1;ratioP1;P1;durP2;ratioP2;P2;SDS_P1;SDS_P2;PMS_P1;PMS_P2;Temp;Humidity;BMP_temperature;BMP_pressure;BME280_temperature;BME280_humidity;BME280_pressure;Samples;Min_cycle;Max_cycle;Signal;HPM_P1;HPM_P2
2022/04/12 00:03:09;;;;;;;21.20;7.23;;;2.70;86.30;;;0.60;69.47;100582.69;10328161;28;97001;-76
2022/04/12 00:08:12;;;;;;;16.60;6.77;;;2.70;88.70;;;0.53;69.67;100577.84;10328947;28;96712;-76
2022/04/12 00:13:18;;;;;;;9.93;4.73;;;2.60;88.70;;;0.48;69.82;100579.94;10329726;28;96827;-76
2022/04/12 00:23:42;;;;;;;11.38;4.57;;;2.50;91.40;;;0.40;70.42;100578.69;10352790;28;96960;-76
2022/04/12 00:28:45;;;;;;;17.67;6.40;;;2.50;90.20;;;0.35;70.94;100567.66;10369647;28;96727;-76
2022/04/12 00:33:48;;;;;;;13.67;5.33;;;2.40;91.70;;;0.30;71.31;100564.50;10339936;28;96704;-78
2022/04/12 00:38:51;;;;;;;11.27;5.73;;;2.40;92.10;;;0.24;71.50;100566.56;10336349;28;97045;-78
2022/04/12 00:43:55;;;;;;;10.37;4.50;;;2.30;92.70;;;0.20;71.63;100565.06;10332468;28;96436;-78
2022/04/12 00:48:58;;;;;;;11.53;4.30;;;2.30;92.60;;;0.16;71.73;100566.19;10331987;28;96531;-77
2022/04/12 00:54:02;;;;;;;8.20;3.87;;;2.30;92.50;;;0.12;71.72;100574.28;10353823;28;96640;-77
2022/04/12 00:59:07;;;;;;;8.30;3.93;;;2.20;91.90;;;0.09;71.69;100566.66;10351559;28;97053;-77
2022/04/12 01:04:10;;;;;;;9.73;3.63;;;2.20;92.80;;;0.07;72.44;100566.75;10314049;28;96714;-77
2022/04/12 01:09:14;;;;;;;5.10;3.13;;;2.20;94.10;;;0.11;72.84;100572.63;10335916;28;96537;-77
2022/04/12 01:14:17;;;;;;;4.93;2.80;;;2.20;94.00;;;0.16;73.03;100568.78;10330450;28;97383;-77
2022/04/12 01:19:20;;;;;;;4.33;2.60;;;2.20;93.90;;;0.22;72.75;100563.19;10310249;28;96560;-77
2022/04/12 01:24:23;;;;;;;6.20;2.80;;;2.30;94.60;;;0.29;72.90;100552.38;10365166;28;96504;-77
2022/04/12 01:29:26;;;;;;;3.97;1.90;;;2.30;93.80;;;0.38;72.60;100551.81;10347988;28;96950;-77
2022/04/12 01:34:29;;;;;;;3.07;1.80;;;2.40;96.20;;;0.48;72.24;100553.78;10333867;28;96597;-77
2022/04/12 01:39:34;;;;;;;3.70;1.50;;;2.50;94.70;;;0.57;71.78;100559.34;10322254;28;96821;-77
2022/04/12 01:44:36;;;;;;;2.83;1.40;;;2.50;93.80;;;0.64;71.42;100552.81;10321956;28;98517;-77
2022/04/12 01:49:39;;;;;;;4.63;2.20;;;2.60;94.00;;;0.65;71.37;100555.31;10362194;28;97828;-78
2022/04/12 01:54:42;;;;;;;4.17;2.00;;;2.60;93.80;;;0.66;70.86;100556.16;10346492;28;96660;-77
2022/04/12 01:59:45;;;;;;;3.57;2.00;;;2.70;93.10;;;0.66;71.28;100556.16;10348030;28;98135;-77
2022/04/12 02:04:48;;;;;;;2.97;1.80;;;2.70;93.10;;;0.63;71.36;100551.97;10330175;28;96697;-77
2022/04/12 02:09:51;;;;;;;3.70;2.20;;;2.70;94.20;;;0.57;71.63;100552.34;10352908;28;96471;-77
2022/04/12 02:14:54;;;;;;;5.73;2.03;;;2.60;93.70;;;0.51;71.54;100563.19;10308910;28;96601;-77
2022/04/12 02:19:57;;;;;;;4.00;1.70;;;2.60;94.00;;;0.43;71.71;100560.22;10360882;28;96639;-77
2022/04/12 02:25:00;;;;;;;3.77;1.93;;;2.50;94.10;;;0.35;72.19;100552.81;10369524;28;96590;-78
2022/04/12 02:30:08;;;;;;;3.93;1.83;;;2.50;94.00;;;0.30;72.45;100559.25;10302315;28;96458;-78
2022/04/12 02:35:12;;;;;;;4.40;2.03;;;2.40;95.70;;;0.24;72.67;100558.72;10302674;28;96621;-77
2022/04/12 02:40:15;;;;;;;3.30;2.00;;;2.30;95.80;;;0.22;72.96;100555.34;10325771;28;96979;-78
2022/04/12 02:45:18;;;;;;;6.40;2.10;;;2.30;96.50;;;0.24;73.34;100568.31;10368422;28;98110;-77
2022/04/12 02:50:22;;;;;;;4.17;2.07;;;2.30;96.10;;;0.30;73.51;100572.34;10312123;28;96631;-78
2022/04/12 02:55:28;;;;;;;3.73;2.03;;;2.30;95.80;;;0.32;73.89;100568.72;10356600;28;96602;-77
2022/04/12 03:00:51;;;;;;;5.17;2.33;;;2.40;95.90;;;0.35;74.17;100570.28;10314141;28;96539;-77
2022/04/12 03:06:13;;;;;;;4.23;1.90;;;2.40;96.50;;;0.36;74.20;100577.19;10337046;28;97787;-77
2022/04/12 03:11:16;;;;;;;4.83;1.93;;;2.40;97.30;;;0.33;74.10;100585.25;10335783;28;96627;-77
2022/04/12 03:16:19;;;;;;;4.73;2.53;;;2.40;97.30;;;0.28;74.33;100579.44;10359207;28;96604;-78
2022/04/12 03:21:22;;;;;;;3.00;1.90;;;2.30;97.20;;;0.22;74.62;100584.09;10342297;28;97196;-77
2022/04/12 03:26:25;;;;;;;3.90;2.30;;;2.30;97.90;;;0.16;74.55;100584.47;10320675;28;96642;-78
2022/04/12 03:31:28;;;;;;;5.17;2.30;;;2.20;98.70;;;0.11;74.63;100576.06;10305483;28;96578;-77
2022/04/12 03:36:31;;;;;;;3.90;2.10;;;2.20;98.40;;;0.04;74.79;100579.97;10332185;28;96815;-77
2022/04/12 03:41:34;;;;;;;3.37;2.30;;;2.10;98.60;;;-0.03;74.48;100584.72;10337326;28;96681;-78
2022/04/12 03:46:36;;;;;;;6.40;2.70;;;2.10;98.80;;;-0.11;74.87;100586.97;10361087;28;96658;-78
2022/04/12 03:51:39;;;;;;;6.87;3.43;;;2.00;99.10;;;-0.18;75.13;100587.41;10337185;28;96475;-78
2022/04/12 03:56:43;;;;;;;9.43;4.60;;;1.90;99.30;;;-0.25;75.26;100593.91;10327169;28;96448;-78
2022/04/12 04:01:46;;;;;;;15.53;5.40;;;1.90;99.90;;;-0.33;75.72;100597.81;10341331;28;97355;-77
2022/04/12 04:06:49;;;;;;;11.27;5.20;;;1.80;99.90;;;-0.38;76.03;100597.25;10369340;28;96446;-78
2022/04/12 04:11:52;;;;;;;12.60;5.50;;;1.70;99.90;;;-0.42;76.40;100603.59;10343982;28;98467;-77
2022/04/12 04:16:55;;;;;;;14.07;6.47;;;1.70;99.90;;;-0.45;76.71;100614.19;10361448;28;96585;-78
2022/04/12 04:21:58;;;;;;;27.73;11.00;;;1.60;99.90;;;-0.44;77.08;100612.41;10360497;28;96553;-78
2022/04/12 04:27:05;;;;;;;29.70;12.17;;;1.60;99.90;;;-0.42;77.50;100615.78;10341065;28;97175;-78
2022/04/12 04:32:10;;;;;;;32.73;13.33;;;1.60;99.90;;;-0.38;77.47;100614.69;10337188;28;97172;-78
2022/04/12 04:37:13;;;;;;;48.40;18.07;;;1.70;99.90;;;-0.29;78.07;100619.38;10340485;28;96697;-78
2022/04/12 04:42:16;;;;;;;29.53;12.97;;;1.70;99.90;;;-0.21;78.12;100618.94;10309108;28;96474;-77
2022/04/12 04:47:19;;;;;;;17.67;7.70;;;1.80;99.90;;;-0.13;78.76;100624.53;10326792;28;96429;-78
2022/04/12 04:52:23;;;;;;;12.00;6.00;;;1.90;99.90;;;-0.05;78.82;100641.47;10333602;28;97589;-78
2022/04/12 04:57:26;;;;;;;12.83;5.57;;;1.90;99.90;;;0.02;79.01;100641.94;10345659;28;96612;-77
2022/04/12 05:02:29;;;;;;;10.83;4.93;;;2.00;99.90;;;0.08;79.24;100644.19;10341096;28;97112;-77
2022/04/12 05:07:31;;;;;;;10.30;5.00;;;2.10;99.90;;;0.16;79.16;100647.19;10325186;28;97361;-77
2022/04/12 05:12:36;;;;;;;9.90;5.07;;;2.10;99.90;;;0.29;79.36;100659.53;10313457;28;96752;-77
2022/04/12 05:17:39;;;;;;;17.67;6.23;;;2.10;99.90;;;0.41;79.23;100654.41;10346990;28;96639;-77
2022/04/12 05:22:42;;;;;;;12.03;5.20;;;2.30;99.90;;;0.62;79.21;100669.78;10387685;28;96693;-77
2022/04/12 05:27:45;;;;;;;9.57;5.60;;;2.40;99.90;;;0.88;79.52;100668.16;10378180;28;96404;-77
2022/04/12 05:32:48;;;;;;;18.70;7.40;;;2.60;99.90;;;1.12;78.57;100674.50;10330679;28;96526;-78
2022/04/12 05:37:53;;;;;;;12.57;6.17;;;2.90;99.90;;;1.35;78.04;100659.97;10305432;28;96808;-77
2022/04/12 05:42:56;;;;;;;11.90;6.27;;;3.10;99.90;;;1.55;77.71;100667.38;10349245;28;96566;-77
2022/04/12 05:48:04;;;;;;;9.87;4.80;;;3.30;99.90;;;1.76;76.75;100673.00;10337644;28;96469;-77
2022/04/12 05:53:07;;;;;;;11.70;5.20;;;3.50;99.90;;;2.00;75.38;100681.03;10324448;28;98723;-75
2022/04/12 05:58:11;;;;;;;10.97;5.30;;;3.60;99.90;;;2.26;74.54;100679.31;10330943;28;96587;-76
2022/04/12 06:03:13;;;;;;;9.43;4.50;;;3.90;99.90;;;2.55;73.37;100693.06;10337888;27;96503;-78
2022/04/12 06:08:16;;;;;;;6.17;3.20;;;4.20;99.90;;;2.87;72.60;100688.22;10338455;28;96605;-77
2022/04/12 06:13:19;;;;;;;10.37;4.87;;;4.50;99.90;;;3.22;69.48;100682.28;10367876;28;96816;-77
2022/04/12 06:18:22;;;;;;;11.57;5.03;;;4.80;98.10;;;3.55;67.33;100672.97;10344486;28;96944;-77
2022/04/12 06:23:25;;;;;;;7.90;3.43;;;5.10;96.30;;;3.87;66.54;100681.94;10335367;28;96610;-77
2022/04/12 06:28:30;;;;;;;7.27;3.73;;;5.40;96.20;;;4.23;63.86;100696.78;10349119;28;96639;-76
2022/04/12 06:33:33;;;;;;;7.63;3.63;;;5.70;94.70;;;4.58;62.22;100688.03;10336360;28;96509;-77
2022/04/12 06:38:36;;;;;;;6.77;3.50;;;6.10;93.50;;;4.87;62.04;100677.88;10315647;28;98473;-77
2022/04/12 06:43:39;;;;;;;7.20;3.60;;;6.40;92.80;;;5.17;62.21;100694.88;10309536;28;97299;-77
2022/04/12 06:48:42;;;;;;;10.20;4.10;;;6.70;92.30;;;5.46;61.63;100700.44;10309618;28;97592;-77
2022/04/12 06:53:45;;;;;;;6.20;2.73;;;7.00;91.20;;;5.75;60.08;100690.19;10330149;28;96477;-77
2022/04/12 06:58:51;;;;;;;5.80;3.30;;;7.30;90.50;;;6.02;60.05;100687.13;10308495;28;96399;-76
2022/04/12 07:03:54;;;;;;;6.10;3.60;;;7.60;89.50;;;6.28;59.38;100683.16;10360447;28;96510;-77
2022/04/12 07:08:57;;;;;;;6.93;4.23;;;7.80;88.50;;;6.55;57.28;100689.72;10368895;28;97887;-76
2022/04/12 07:14:00;;;;;;;5.67;3.20;;;8.10;85.90;;;6.77;55.50;100694.00;10349715;28;96600;-76
2022/04/12 07:19:04;;;;;;;5.77;2.73;;;8.30;82.50;;;7.05;53.27;100697.75;10373068;28;98295;-76
2022/04/12 07:24:08;;;;;;;4.67;2.83;;;8.60;79.10;;;7.27;53.00;100694.94;10391927;28;96457;-76
2022/04/12 07:29:11;;;;;;;3.83;2.80;;;8.80;74.40;;;7.59;51.70;100697.38;10364058;28;96452;-76
2022/04/12 07:34:15;;;;;;;4.77;2.90;;;9.10;75.30;;;8.27;49.88;100686.81;10354308;28;96427;-76
2022/04/12 07:39:49;;;;;;;7.93;2.90;;;9.70;72.90;;;9.91;48.84;100680.81;10379304;28;96490;-76
2022/04/12 07:45:59;;;;;;;3.47;2.10;;;10.50;67.50;;;11.87;44.89;100670.44;10177508;28;96916;-78
2022/04/12 07:51:23;;;;;;;3.97;2.42;;;11.60;65.10;;;13.28;42.00;100671.75;10179688;28;98617;-76
2022/04/12 07:56:25;;;;;;;4.82;2.88;;;12.60;67.60;;;14.45;39.88;100666.09;10180363;28;96667;-76
2022/04/12 08:01:28;;;;;;;4.20;2.75;;;13.50;65.30;;;15.18;36.55;100655.63;10189824;28;96624;-76
2022/04/12 08:06:31;;;;;;;3.80;2.53;;;14.10;62.50;;;15.51;35.22;100664.03;10184631;28;96670;-76
2022/04/12 08:11:34;;;;;;;8.10;3.10;;;14.50;59.50;;;15.50;35.26;100659.69;10348509;28;96542;-76
2022/04/12 08:16:37;;;;;;;6.35;2.72;;;14.70;56.50;;;14.73;34.82;100674.34;10358303;28;97477;-76
2022/04/12 08:21:41;;;;;;;4.63;2.75;;;14.70;54.70;;;14.40;34.26;100679.16;10371891;28;96458;-77
2022/04/12 08:26:45;;;;;;;8.40;4.38;;;14.70;53.00;;;14.35;35.01;100668.19;10373315;28;96605;-76
2022/04/12 08:31:47;;;;;;;8.68;3.95;;;14.70;52.60;;;14.10;35.72;100680.91;10355961;28;96616;-76
2022/04/12 08:36:50;;;;;;;9.07;3.50;;;14.60;52.50;;;13.55;34.63;100676.59;10390769;28;96567;-76
2022/04/12 08:41:57;;;;;;;7.53;3.05;;;14.50;50.60;;;13.15;35.34;100687.44;10362143;28;96436;-76
2022/04/12 08:47:04;;;;;;;6.63;3.15;;;14.40;50.00;;;12.97;35.22;100679.66;10331873;28;96542;-76
2022/04/12 08:52:11;;;;;;;4.90;2.55;;;14.40;49.50;;;13.11;35.62;100670.94;10301105;28;97479;-76
2022/04/12 08:57:14;;;;;;;7.10;2.72;;;14.50;50.10;;;13.37;34.53;100670.69;10305641;28;96593;-76
2022/04/12 09:02:17;;;;;;;12.25;5.03;;;14.70;49.40;;;13.61;35.47;100673.25;10337926;28;96580;-77
2022/04/12 09:07:26;;;;;;;3.78;2.38;;;14.90;49.50;;;13.70;32.10;100665.19;10336064;28;96595;-77
2022/04/12 09:12:34;;;;;;;4.63;2.25;;;15.10;46.30;;;14.11;32.53;100669.22;10340075;28;96577;-77
2022/04/12 09:17:41;;;;;;;3.65;2.15;;;15.30;46.60;;;14.22;31.45;100662.63;10338722;28;97336;-77
2022/04/12 09:22:46;;;;;;;6.00;2.75;;;15.50;45.30;;;14.49;32.11;100661.22;10369103;28;96540;-78
2022/04/12 09:27:50;;;;;;;5.93;3.42;;;15.70;45.40;;;14.94;31.85;100648.72;10378360;28;96556;-78
2022/04/12 09:32:53;;;;;;;5.55;3.10;;;16.00;45.50;;;15.20;32.07;100634.84;10372498;28;96763;-78
2022/04/12 09:37:56;;;;;;;4.95;2.60;;;16.30;45.60;;;15.22;30.61;100636.28;10379235;28;96484;-78
2022/04/12 09:42:59;;;;;;;6.22;3.22;;;16.30;44.30;;;15.62;30.82;100619.84;10364406;28;96599;-78
2022/04/12 09:48:08;;;;;;;6.10;3.55;;;16.50;44.60;;;16.33;29.41;100618.03;10360134;28;96587;-78
2022/04/12 09:53:45;;;;;;;5.60;2.95;;;17.00;44.20;;;16.58;28.96;100610.38;10364132;28;96740;-78
2022/04/12 09:58:54;;;;;;;5.82;2.90;;;17.30;43.40;;;16.88;29.47;100604.78;10338528;28;96440;-78
2022/04/12 10:03:59;;;;;;;5.45;3.72;;;17.70;43.40;;;17.35;28.13;100596.72;10354314;28;96472;-78
2022/04/12 10:09:05;;;;;;;6.50;3.53;;;18.10;43.00;;;17.42;28.99;100593.22;10338359;28;97852;-78
2022/04/12 10:14:11;;;;;;;8.55;4.85;;;18.20;42.30;;;17.48;29.28;100589.72;10352011;28;96645;-79
2022/04/12 10:19:15;;;;;;;5.93;3.88;;;18.30;43.20;;;17.51;28.76;100583.91;10338605;28;96512;-79
2022/04/12 10:24:19;;;;;;;4.47;2.83;;;18.40;42.30;;;18.07;28.45;100572.84;10386179;28;96462;-79
2022/04/12 10:29:21;;;;;;;5.70;3.60;;;18.90;42.20;;;18.11;27.64;100574.06;10378650;28;96507;-79
2022/04/12 10:34:24;;;;;;;6.10;3.28;;;19.40;41.90;;;18.41;27.21;100559.16;10342961;28;96652;-79
2022/04/12 10:39:49;;;;;;;5.38;3.38;;;19.90;41.70;;;18.68;27.18;100548.31;10353407;28;96675;-78
2022/04/12 10:44:56;;;;;;;6.22;3.13;;;20.30;40.20;;;19.64;26.90;100542.03;10392926;28;96628;-79
2022/04/12 10:50:08;;;;;;;4.72;3.25;;;20.80;40.60;;;20.12;25.22;100531.47;10341315;28;96529;-79
2022/04/12 10:55:26;;;;;;;5.88;2.85;;;21.20;39.80;;;20.36;25.19;100532.47;10338291;28;96468;-79
2022/04/12 11:00:30;;;;;;;5.07;3.45;;;21.40;39.00;;;19.92;25.00;100534.34;10336234;28;96550;-78
2022/04/12 11:05:36;;;;;;;5.90;3.75;;;21.30;38.00;;;20.52;24.90;100534.59;10335152;28;96598;-79
2022/04/12 11:10:39;;;;;;;6.95;3.97;;;21.80;38.50;;;20.96;24.45;100519.09;10337716;28;96609;-79
2022/04/12 11:15:56;;;;;;;6.28;3.08;;;22.30;37.90;;;21.88;24.64;100518.75;10335512;28;97418;-79
2022/04/12 11:21:02;;;;;;;4.68;3.08;;;22.90;37.20;;;21.93;24.00;100508.06;10351369;28;96627;-78
2022/04/12 11:26:27;;;;;;;6.50;3.15;;;23.20;37.30;;;22.22;22.69;100497.38;10358822;28;96460;-80
2022/04/12 11:31:30;;;;;;;4.95;2.90;;;23.50;35.60;;;22.49;22.99;100493.13;10374330;28;96603;-80
2022/04/12 11:36:40;;;;;;;4.50;2.90;;;23.70;36.00;;;22.53;22.30;100483.44;10366076;28;96665;-79
2022/04/12 11:41:43;;;;;;;4.93;2.83;;;23.90;35.40;;;22.32;21.61;100476.78;10334018;28;96553;-79
2022/04/12 11:46:54;;;;;;;4.97;2.63;;;23.80;34.40;;;22.22;20.81;100481.16;10335084;28;96911;-80
2022/04/12 11:52:03;;;;;;;4.78;3.08;;;23.70;34.00;;;22.18;20.27;100478.91;10331707;28;97665;-79
2022/04/12 11:57:10;;;;;;;7.28;3.55;;;23.70;33.30;;;21.72;22.19;100485.13;10334606;28;96523;-79
2022/04/12 12:02:16;;;;;;;5.32;2.90;;;23.30;34.20;;;22.00;21.94;100480.88;10332862;28;96515;-78
2022/04/12 12:07:20;;;;;;;6.45;2.97;;;23.40;34.20;;;22.21;21.62;100474.91;10307004;28;96787;-78
2022/04/12 12:12:45;;;;;;;7.82;2.92;;;23.80;33.90;;;22.34;22.19;100465.72;10336284;28;96555;-79
2022/04/12 12:17:52;;;;;;;5.95;3.63;;;23.90;34.30;;;22.12;21.29;100463.59;10377656;28;98928;-78
2022/04/12 12:23:02;;;;;;;4.28;3.17;;;23.80;33.60;;;21.81;21.63;100461.25;10311238;28;96579;-78
2022/04/12 12:28:15;;;;;;;;;;;23.40;33.90;;;21.64;22.02;100463.81;10322886;28;96610;-78
2022/04/12 12:33:26;;;;;;;5.05;3.10;;;23.10;33.90;;;21.27;21.10;100450.47;10358346;28;96639;-78
2022/04/12 12:38:29;;;;;;;5.00;3.08;;;22.70;33.30;;;21.19;22.64;100452.69;10367472;28;97848;-79
2022/04/12 12:43:34;;;;;;;5.88;3.40;;;22.30;34.30;;;21.11;23.47;100451.97;10329126;28;98061;-77
2022/04/12 12:48:37;;;;;;;4.97;3.15;;;22.10;34.80;;;21.37;23.36;100442.66;10331647;28;97047;-80
2022/04/12 12:53:40;;;;;;;6.00;3.60;;;22.30;34.70;;;20.48;21.73;100430.00;10334871;28;96741;-79
2022/04/12 12:58:43;;;;;;;6.65;3.72;;;22.10;33.60;;;19.99;23.29;100432.59;10315612;28;96730;-79
2022/04/12 13:03:55;;;;;;;5.93;3.40;;;21.80;34.00;;;20.08;23.91;100429.59;10320442;28;96578;-79
2022/04/12 13:09:05;;;;;;;5.95;3.33;;;22.20;34.60;;;19.95;23.79;100434.09;10344248;28;96737;-79
2022/04/12 13:14:08;;;;;;;5.30;3.75;;;22.40;33.80;;;20.36;22.67;100424.50;10350118;28;96564;-79
2022/04/12 13:19:11;;;;;;;6.53;3.40;;;22.90;33.30;;;20.69;23.43;100424.13;10350775;28;96667;-82
2022/04/12 13:24:14;;;;;;;7.03;3.70;;;23.00;34.00;;;21.25;22.48;100409.34;10331951;28;96418;-82
2022/04/12 13:29:18;;;;;;;7.60;3.95;;;23.50;33.40;;;21.92;21.91;100400.91;10337412;28;97296;-82
2022/04/12 13:34:21;;;;;;;7.22;4.57;;;24.10;33.40;;;21.54;21.68;100401.41;10352853;28;96627;-82
2022/04/12 13:39:24;;;;;;;9.70;4.45;;;23.90;31.90;;;22.01;21.23;100387.81;10373049;28;96487;-82
2022/04/12 13:44:27;;;;;;;6.38;3.35;;;24.20;32.60;;;22.42;22.52;100387.63;10351379;28;96491;-82
2022/04/12 13:49:35;;;;;;;6.03;3.33;;;24.50;32.80;;;23.06;20.69;100381.22;10338124;28;96621;-83
2022/04/12 13:54:38;;;;;;;6.40;3.67;;;25.10;32.00;;;23.21;20.71;100382.31;10342430;28;96589;-83
2022/04/12 13:59:41;;;;;;;7.38;4.35;;;25.40;31.70;;;23.15;19.44;100380.59;10337730;28;96460;-82
2022/04/12 14:04:43;;;;;;;6.00;3.78;;;25.40;31.10;;;23.35;19.56;100374.66;10315009;28;96580;-82
2022/04/12 14:09:55;;;;;;;4.47;3.55;;;25.40;31.30;;;23.37;19.93;100367.06;10367357;28;96617;-82
2022/04/12 14:15:03;;;;;;;6.03;2.92;;;25.50;31.20;;;23.45;20.15;100371.25;10333778;28;97744;-82
2022/04/12 14:20:06;;;;;;;4.47;3.53;;;25.40;31.20;;;23.45;19.18;100369.38;10344217;28;96519;-83
2022/04/12 14:25:10;;;;;;;6.97;4.15;;;25.50;31.00;;;23.27;19.59;100360.66;10375179;28;96653;-82
2022/04/12 14:30:13;;;;;;;4.28;3.47;;;25.30;30.60;;;23.51;19.48;100356.72;10354278;28;96719;-83
2022/04/12 14:35:16;;;;;;;7.68;3.85;;;25.40;30.80;;;23.18;19.02;100355.69;10327676;28;96686;-82
2022/04/12 14:40:19;;;;;;;5.90;4.00;;;25.30;30.40;;;22.92;20.10;100365.28;10376609;28;96962;-82
2022/04/12 14:45:24;;;;;;;7.70;5.13;;;24.90;30.80;;;22.84;19.97;100367.53;10336192;28;97474;-84
2022/04/12 14:50:28;;;;;;;9.45;5.57;;;24.70;30.70;;;22.53;19.08;100358.84;10354967;28;96394;-80
2022/04/12 14:55:31;;;;;;;7.45;4.53;;;24.50;30.40;;;22.56;20.30;100363.81;10357445;28;96768;-84
2022/04/12 15:00:34;;;;;;;7.95;4.20;;;24.20;31.10;;;22.86;19.63;100360.00;10334755;28;96674;-84
2022/04/12 15:05:37;;;;;;;6.80;4.90;;;24.40;30.70;;;22.95;19.60;100363.97;10356777;28;97114;-84
2022/04/12 15:10:40;;;;;;;7.22;4.43;;;24.50;30.90;;;23.10;19.10;100358.81;10396333;28;96533;-83
2022/04/12 15:15:44;;;;;;;9.65;4.47;;;24.60;30.50;;;22.85;19.44;100366.47;10373570;28;96517;-84
2022/04/12 15:20:48;;;;;;;7.55;4.05;;;24.50;30.60;;;22.71;19.52;100360.53;10321250;28;97450;-84
2022/04/12 15:25:50;;;;;;;7.70;4.53;;;24.30;30.70;;;22.17;19.63;100370.88;10317518;28;96776;-84
2022/04/12 15:30:53;;;;;;;6.32;3.90;;;24.00;30.70;;;21.92;20.12;100360.34;10342883;28;96826;-87
2022/04/12 15:35:57;;;;;;;6.15;4.20;;;23.60;31.10;;;21.86;20.57;100354.00;10348437;28;96544;-80
2022/04/12 15:40:59;;;;;;;7.50;4.10;;;23.50;31.50;;;21.69;20.84;100350.38;10334657;28;96670;-80
2022/04/12 15:46:02;;;;;;;9.07;5.13;;;23.20;31.50;;;21.72;20.86;100359.91;10344764;28;97328;-80
2022/04/12 15:51:06;;;;;;;6.60;4.75;;;23.20;31.80;;;21.40;20.70;100357.56;10351922;28;96537;-80
2022/04/12 15:56:13;;;;;;;9.98;4.95;;;22.90;31.70;;;21.23;21.34;100373.63;10350477;28;96633;-80
2022/04/12 16:01:16;;;;;;;8.15;4.50;;;22.70;32.50;;;21.10;22.11;100377.34;10310188;28;96556;-80
2022/04/12 16:06:19;;;;;;;8.15;4.45;;;22.60;32.30;;;20.87;22.10;100374.63;10339672;28;96595;-80
2022/04/12 16:11:23;;;;;;;9.63;4.40;;;22.30;32.40;;;20.22;22.27;100371.75;10377352;28;97649;-80
2022/04/12 16:16:26;;;;;;;8.93;5.15;;;21.80;32.80;;;19.36;23.03;100378.03;10360472;28;96610;-80
2022/04/12 16:21:30;;;;;;;10.98;5.40;;;21.10;33.20;;;18.43;23.60;100381.34;10315310;28;96795;-79
2022/04/12 16:26:35;;;;;;;8.20;4.93;;;20.30;33.60;;;17.79;24.78;100384.88;10350269;28;96613;-80
2022/04/12 16:31:41;;;;;;;11.48;6.18;;;19.60;34.40;;;17.20;26.51;100394.63;10314737;28;96765;-79
2022/04/12 16:36:44;;;;;;;8.43;4.05;;;19.00;35.30;;;16.67;26.59;100405.25;10334522;28;96556;-80
2022/04/12 16:41:47;;;;;;;10.73;6.75;;;18.50;35.90;;;16.23;27.63;100397.69;10331834;28;96540;-80
2022/04/12 16:46:52;;;;;;;11.27;4.72;;;18.00;36.70;;;15.84;28.66;100403.69;10305705;28;96531;-81
2022/04/12 16:51:56;;;;;;;8.95;4.70;;;17.60;37.40;;;15.49;29.83;100406.28;10346580;28;96627;-81
2022/04/12 16:57:00;;;;;;;8.93;5.03;;;17.20;38.10;;;15.12;31.05;100400.22;10371580;28;98337;-82
2022/04/12 17:02:03;;;;;;;8.85;5.68;;;16.90;38.90;;;14.73;32.15;100396.13;10298472;28;96494;-81
2022/04/12 17:07:06;;;;;;;15.10;6.75;;;16.50;39.70;;;14.29;34.11;100403.44;10368526;28;96919;-81
2022/04/12 17:12:12;;;;;;;10.90;6.90;;;16.20;41.40;;;13.83;34.29;100408.97;10367293;28;96525;-81
2022/04/12 17:17:15;;;;;;;22.33;11.00;;;15.70;41.80;;;13.42;35.21;100428.06;10332600;28;96710;-82
2022/04/12 17:22:20;;;;;;;23.33;13.43;;;15.30;42.40;;;13.00;36.29;100417.88;10350951;28;98078;-82
2022/04/12 17:27:23;;;;;;;14.53;8.77;;;14.90;43.10;;;12.63;36.91;100422.13;10335993;28;96506;-82
2022/04/12 17:32:26;;;;;;;9.70;5.87;;;14.50;43.70;;;12.29;37.62;100415.31;10362135;28;97040;-82
2022/04/12 17:37:30;;;;;;;7.23;4.00;;;14.20;44.20;;;11.97;38.24;100424.25;10325433;28;96459;-82
2022/04/12 17:42:33;;;;;;;13.30;5.60;;;13.90;44.60;;;11.69;38.61;100428.28;10370584;28;98210;-81
2022/04/12 17:47:36;;;;;;;15.50;8.07;;;13.60;45.20;;;11.41;39.37;100425.19;10379333;28;96616;-81
2022/04/12 17:52:39;;;;;;;13.93;7.40;;;13.30;45.60;;;11.17;39.92;100434.00;10359968;28;96462;-81
2022/04/12 17:57:42;;;;;;;10.17;5.80;;;13.00;46.10;;;10.99;40.82;100436.81;10350162;28;98166;-80
2022/04/12 18:02:45;;;;;;;16.07;8.37;;;12.80;46.70;;;10.82;41.18;100435.94;10354608;28;98023;-81
2022/04/12 18:07:48;;;;;;;14.13;7.80;;;12.60;47.20;;;10.67;41.90;100440.22;10352048;28;96861;-79
2022/04/12 18:12:51;;;;;;;11.67;7.17;;;12.40;47.60;;;10.54;41.93;100438.03;10326251;28;96610;-81
2022/04/12 18:17:55;;;;;;;9.53;5.57;;;12.30;48.10;;;10.45;42.10;100449.66;10329773;28;96632;-80
2022/04/12 18:23:02;;;;;;;9.60;5.87;;;12.20;48.70;;;10.35;42.21;100460.38;10352441;28;96815;-81
2022/04/12 18:28:06;;;;;;;10.13;5.80;;;12.10;48.70;;;10.24;42.65;100471.28;10305590;28;97232;-81
2022/04/12 18:33:11;;;;;;;12.07;5.00;;;11.90;49.00;;;10.14;43.22;100471.41;10346347;28;96730;-80
2022/04/12 18:38:15;;;;;;;12.10;5.70;;;11.80;49.40;;;10.01;43.44;100472.81;10312157;28;96616;-80
2022/04/12 18:43:19;;;;;;;14.63;5.77;;;11.70;49.80;;;9.79;45.73;100474.19;10307700;28;96669;-81
2022/04/12 18:48:22;;;;;;;16.43;7.73;;;11.50;50.40;;;9.56;46.38;100487.94;10324274;28;97930;-81
2022/04/12 18:53:27;;;;;;;21.93;11.50;;;11.40;51.60;;;9.32;48.26;100498.34;10299114;28;96623;-80
2022/04/12 18:58:30;;;;;;;29.03;15.43;;;11.20;52.80;;;9.09;48.65;100505.94;10319729;28;96557;-80
2022/04/12 19:03:33;;;;;;;29.23;13.37;;;10.90;53.20;;;8.89;49.45;100497.28;10301882;28;96556;-80
2022/04/12 19:08:36;;;;;;;22.03;10.77;;;10.70;54.10;;;8.65;50.25;100500.50;10314042;28;96543;-81
2022/04/12 19:13:39;;;;;;;21.90;10.93;;;10.50;54.90;;;8.44;51.19;100513.13;10311585;28;96912;-80
2022/04/12 19:18:42;;;;;;;27.07;13.47;;;10.30;56.80;;;8.20;52.39;100517.09;10334462;28;96642;-80
2022/04/12 19:23:45;;;;;;;23.97;11.13;;;10.10;56.90;;;8.04;52.71;100538.06;10333573;28;96588;-81
2022/04/12 19:28:48;;;;;;;30.07;13.63;;;9.90;57.20;;;7.92;53.42;100539.22;10314475;28;96519;-80
2022/04/12 19:33:51;;;;;;;41.17;20.37;;;9.70;57.30;;;7.81;54.75;100548.13;10304896;28;96828;-80
2022/04/12 19:38:56;;;;;;;40.07;19.00;;;9.60;58.30;;;7.67;54.98;100541.44;10328740;28;99121;-80
2022/04/12 19:43:59;;;;;;;24.60;11.20;;;9.50;59.50;;;7.56;54.44;100552.19;10360172;28;96501;-81
2022/04/12 19:49:02;;;;;;;23.57;8.73;;;9.40;59.20;;;7.47;54.43;100550.38;10369257;28;97759;-80
2022/04/12 19:54:09;;;;;;;15.43;8.10;;;9.30;59.20;;;7.35;55.28;100544.38;10360684;28;96669;-81
2022/04/12 19:59:12;;;;;;;18.67;7.90;;;9.20;60.30;;;7.20;55.46;100548.44;10337269;28;96625;-80
2022/04/12 20:04:18;;;;;;;19.07;7.83;;;9.00;60.40;;;7.07;55.86;100553.09;10330342;28;96591;-80
2022/04/12 20:09:21;;;;;;;13.97;6.70;;;8.90;61.20;;;6.93;56.05;100549.06;10336466;28;96711;-80
2022/04/12 20:14:25;;;;;;;18.07;7.40;;;8.80;61.20;;;6.81;57.04;100555.44;10326577;28;96839;-81
2022/04/12 20:19:29;;;;;;;15.17;6.97;;;8.60;62.20;;;6.66;57.59;100554.97;10337112;28;96646;-80
2022/04/12 20:24:32;;;;;;;13.27;7.00;;;8.50;62.90;;;6.53;58.25;100557.00;10361753;28;98236;-80
2022/04/12 20:29:36;;;;;;;16.30;6.67;;;8.40;63.10;;;6.39;58.67;100566.94;10305343;28;96559;-80
2022/04/12 20:34:40;;;;;;;22.30;8.03;;;8.20;63.30;;;6.27;58.97;100565.34;10342426;28;96514;-80
2022/04/12 20:39:43;;;;;;;19.33;8.03;;;8.10;64.00;;;6.13;59.60;100582.38;10356531;28;96636;-80
2022/04/12 20:44:46;;;;;;;14.50;6.73;;;8.00;64.30;;;6.01;60.00;100575.50;10302018;28;96635;-81
2022/04/12 20:49:49;;;;;;;13.97;6.20;;;7.80;65.40;;;5.88;60.37;100575.66;10354274;28;96569;-80
2022/04/12 20:54:53;;;;;;;24.40;8.30;;;7.70;65.90;;;5.76;60.54;100578.50;10378361;28;97444;-80
2022/04/12 20:59:59;;;;;;;24.90;9.07;;;7.60;66.20;;;5.64;61.58;100580.34;10358563;28;96569;-80
2022/04/12 21:05:03;;;;;;;32.57;10.97;;;7.50;67.80;;;5.52;62.15;100584.81;10323483;28;96756;-80
2022/04/12 21:10:06;;;;;;;26.27;10.00;;;7.40;69.20;;;5.39;62.64;100573.59;10345860;28;96582;-79